sensor_id;sensor_type;location;lat;lon;timestamp;temperature;humidity
5848;DHT22;8756;49.29324300;8.70599800;2023-03-05T00:01:18;4.00;99.90
5848;DHT22;8756;49.29324300;8.70599800;2023-03-05T00:03:50;4.00;99.90
5848;DHT22;8756;49.29324300;8.70599800;2023-03-05T00:06:18;4.00;99.90
5848;DHT22;8756;49.29324300;8.70599800;2023-03-05T00:08:44;4.00;99.90
5848;DHT22;8756;49.29324300;8.70599800;2023-03-05T00:11:11;4.00;99.90
5848;DHT22;8756;49.29324300;8.70599800;2023-03-05T00:13:37;4.00;99.90
5848;DHT22;8756;49.29324300;8.70599800;2023-03-05T00:16:05;4.00;99.90
5848;DHT22;8756;49.29324300;8.70599800;2023-03-05T00:18:34;4.00;99.90
5848;DHT22;8756;49.29324300;8.70599800;2023-03-05T00:21:01;4.00;99.90
5848;DHT22;8756;49.29324300;8.70599800;2023-03-05T00:23:27;4.00;99.90
5848;DHT22;8756;49.29324300;8.70599800;2023-03-05T00:25:53;4.00;99.90
5848;DHT22;8756;49.29324300;8.70599800;2023-03-05T00:28:18;4.00;99.90
5848;DHT22;8756;49.29324300;8.70599800;2023-03-05T00:30:47;4.00;99.90
5848;DHT22;8756;49.29324300;8.70599800;2023-03-05T00:33:13;4.10;99.90
5848;DHT22;8756;49.29324300;8.70599800;2023-03-05T00:35:41;4.10;99.90
5848;DHT22;8756;49.29324300;8.70599800;2023-03-05T00:38:07;4.10;99.90
5848;DHT22;8756;49.29324300;8.70599800;2023-03-05T00:40:38;4.10;99.90
5848;DHT22;8756;49.29324300;8.70599800;2023-03-05T00:43:05;4.10;99.90
5848;DHT22;8756;49.29324300;8.70599800;2023-03-05T00:45:30;4.10;99.90
5848;DHT22;8756;49.29324300;8.70599800;2023-03-05T00:47:57;4.10;99.90
5848;DHT22;8756;49.29324300;8.70599800;2023-03-05T00:50:23;4.10;99.90
5848;DHT22;8756;49.29324300;8.70599800;2023-03-05T00:52:51;4.10;99.90
5848;DHT22;8756;49.29324300;8.70599800;2023-03-05T00:55:17;4.10;99.90
5848;DHT22;8756;49.29324300;8.70599800;2023-03-05T00:57:42;4.10;99.90
5848;DHT22;8756;49.29324300;8.70599800;2023-03-05T01:00:09;4.10;99.90
5848;DHT22;8756;49.29324300;8.70599800;2023-03-05T01:02:36;4.10;99.90
5848;DHT22;8756;49.29324300;8.70599800;2023-03-05T01:05:02;4.10;99.90
5848;DHT22;8756;49.29324300;8.70599800;2023-03-05T01:07:28;4.10;99.90
5848;DHT22;8756;49.29324300;8.70599800;2023-03-05T01:09:54;4.10;99.90
5848;DHT22;8756;49.29324300;8.70599800;2023-03-05T01:12:20;4.10;99.90
5848;DHT22;8756;49.29324300;8.70599800;2023-03-05T01:14:45;4.10;99.90
5848;DHT22;8756;49.29324300;8.70599800;2023-03-05T01:17:11;4.10;99.90
5848;DHT22;8756;49.29324300;8.70599800;2023-03-05T01:19:36;4.10;99.90
5848;DHT22;8756;49.29324300;8.70599800;2023-03-05T01:22:02;4.10;99.90
5848;DHT22;8756;49.29324300;8.70599800;2023-03-05T01:24:30;4.10;99.90
5848;DHT22;8756;49.29324300;8.70599800;2023-03-05T01:26:56;4.00;99.90
5848;DHT22;8756;49.29324300;8.70599800;2023-03-05T01:29:22;4.00;99.90
5848;DHT22;8756;49.29324300;8.70599800;2023-03-05T01:31:48;4.00;99.90
5848;DHT22;8756;49.29324300;8.70599800;2023-03-05T01:34:14;4.00;99.90
5848;DHT22;8756;49.29324300;8.70599800;2023-03-05T01:36:41;4.00;99.90
5848;DHT22;8756;49.29324300;8.70599800;2023-03-05T01:39:06;4.00;99.90
5848;DHT22;8756;49.29324300;8.70599800;2023-03-05T01:41:33;4.00;99.90
5848;DHT22;8756;49.29324300;8.70599800;2023-03-05T01:43:59;4.00;99.90
5848;DHT22;8756;49.29324300;8.70599800;2023-03-05T01:48:57;4.00;99.90
5848;DHT22;8756;49.29324300;8.70599800;2023-03-05T01:54:20;4.00;99.90
5848;DHT22;8756;49.29324300;8.70599800;2023-03-05T01:56:49;4.00;99.90
5848;DHT22;8756;49.29324300;8.70599800;2023-03-05T01:59:16;4.00;99.90
5848;DHT22;8756;49.29324300;8.70599800;2023-03-05T02:01:47;4.00;99.90
5848;DHT22;8756;49.29324300;8.70599800;2023-03-05T02:04:16;3.90;99.90
5848;DHT22;8756;49.29324300;8.70599800;2023-03-05T02:06:43;3.90;99.90
5848;DHT22;8756;49.29324300;8.70599800;2023-03-05T02:09:10;3.90;99.90
5848;DHT22;8756;49.29324300;8.70599800;2023-03-05T02:11:36;3.90;99.90
5848;DHT22;8756;49.29324300;8.70599800;2023-03-05T02:14:03;3.90;99.90
5848;DHT22;8756;49.29324300;8.70599800;2023-03-05T02:16:29;3.90;99.90
5848;DHT22;8756;49.29324300;8.70599800;2023-03-05T02:19:03;3.90;99.90
5848;DHT22;8756;49.29324300;8.70599800;2023-03-05T02:21:42;3.90;99.90
5848;DHT22;8756;49.29324300;8.70599800;2023-03-05T02:24:16;3.90;99.90
5848;DHT22;8756;49.29324300;8.70599800;2023-03-05T02:26:44;3.80;99.90
5848;DHT22;8756;49.29324300;8.70599800;2023-03-05T02:29:14;3.80;99.90
5848;DHT22;8756;49.29324300;8.70599800;2023-03-05T02:31:42;3.80;99.90
5848;DHT22;8756;49.29324300;8.70599800;2023-03-05T02:34:08;3.80;99.90
5848;DHT22;8756;49.29324300;8.70599800;2023-03-05T02:36:34;3.80;99.90
5848;DHT22;8756;49.29324300;8.70599800;2023-03-05T02:39:00;3.80;99.90
5848;DHT22;8756;49.29324300;8.70599800;2023-03-05T02:41:26;3.80;99.90
5848;DHT22;8756;49.29324300;8.70599800;2023-03-05T02:43:52;3.80;99.90
5848;DHT22;8756;49.29324300;8.70599800;2023-03-05T02:46:18;3.80;99.90
5848;DHT22;8756;49.29324300;8.70599800;2023-03-05T02:48:44;3.80;99.90
5848;DHT22;8756;49.29324300;8.70599800;2023-03-05T02:51:10;3.80;99.90
5848;DHT22;8756;49.29324300;8.70599800;2023-03-05T02:53:35;3.80;99.90
5848;DHT22;8756;49.29324300;8.70599800;2023-03-05T02:56:02;3.80;99.90
5848;DHT22;8756;49.29324300;8.70599800;2023-03-05T02:58:28;3.90;99.90
5848;DHT22;8756;49.29324300;8.70599800;2023-03-05T03:00:54;3.90;99.90
5848;DHT22;8756;49.29324300;8.70599800;2023-03-05T03:03:19;3.90;99.90
5848;DHT22;8756;49.29324300;8.70599800;2023-03-05T03:05:45;3.90;99.90
5848;DHT22;8756;49.29324300;8.70599800;2023-03-05T03:08:11;3.90;99.90
5848;DHT22;8756;49.29324300;8.70599800;2023-03-05T03:10:36;3.90;99.90
5848;DHT22;8756;49.29324300;8.70599800;2023-03-05T03:13:02;3.90;99.90
5848;DHT22;8756;49.29324300;8.70599800;2023-03-05T03:15:28;3.90;99.90
5848;DHT22;8756;49.29324300;8.70599800;2023-03-05T03:17:54;3.90;99.90
5848;DHT22;8756;49.29324300;8.70599800;2023-03-05T03:20:20;3.90;99.90
5848;DHT22;8756;49.29324300;8.70599800;2023-03-05T03:22:46;3.90;99.90
5848;DHT22;8756;49.29324300;8.70599800;2023-03-05T03:25:20;3.90;99.90
5848;DHT22;8756;49.29324300;8.70599800;2023-03-05T03:27:47;3.90;99.90
5848;DHT22;8756;49.29324300;8.70599800;2023-03-05T03:30:13;3.90;99.90
5848;DHT22;8756;49.29324300;8.70599800;2023-03-05T03:32:40;3.90;99.90
5848;DHT22;8756;49.29324300;8.70599800;2023-03-05T03:35:06;3.90;99.90
5848;DHT22;8756;49.29324300;8.70599800;2023-03-05T03:37:32;3.90;99.90
5848;DHT22;8756;49.29324300;8.70599800;2023-03-05T03:39:58;3.90;99.90
5848;DHT22;8756;49.29324300;8.70599800;2023-03-05T03:42:24;3.90;99.90
5848;DHT22;8756;49.29324300;8.70599800;2023-03-05T03:44:50;3.90;99.90
5848;DHT22;8756;49.29324300;8.70599800;2023-03-05T03:47:16;3.90;99.90
5848;DHT22;8756;49.29324300;8.70599800;2023-03-05T03:49:42;3.90;99.90
5848;DHT22;8756;49.29324300;8.70599800;2023-03-05T03:52:07;3.90;99.90
5848;DHT22;8756;49.29324300;8.70599800;2023-03-05T03:54:34;3.90;99.90
5848;DHT22;8756;49.29324300;8.70599800;2023-03-05T03:56:59;3.90;99.90
5848;DHT22;8756;49.29324300;8.70599800;2023-03-05T03:59:25;3.90;99.90
5848;DHT22;8756;49.29324300;8.70599800;2023-03-05T04:01:51;3.90;99.90
5848;DHT22;8756;49.29324300;8.70599800;2023-03-05T04:04:17;3.90;99.90
5848;DHT22;8756;49.29324300;8.70599800;2023-03-05T04:06:42;3.80;99.90
5848;DHT22;8756;49.29324300;8.70599800;2023-03-05T04:09:08;3.80;99.90
5848;DHT22;8756;49.29324300;8.70599800;2023-03-05T04:11:35;3.80;99.90
5848;DHT22;8756;49.29324300;8.70599800;2023-03-05T04:14:02;3.80;99.90
5848;DHT22;8756;49.29324300;8.70599800;2023-03-05T04:16:28;3.80;99.90
5848;DHT22;8756;49.29324300;8.70599800;2023-03-05T04:18:54;3.80;99.90
5848;DHT22;8756;49.29324300;8.70599800;2023-03-05T04:21:20;3.90;99.90
5848;DHT22;8756;49.29324300;8.70599800;2023-03-05T04:23:45;3.80;99.90
5848;DHT22;8756;49.29324300;8.70599800;2023-03-05T04:26:11;3.80;99.90
5848;DHT22;8756;49.29324300;8.70599800;2023-03-05T04:28:37;3.90;99.90
5848;DHT22;8756;49.29324300;8.70599800;2023-03-05T04:31:03;3.80;99.90
5848;DHT22;8756;49.29324300;8.70599800;2023-03-05T04:33:29;3.80;99.90
5848;DHT22;8756;49.29324300;8.70599800;2023-03-05T04:35:55;3.80;99.90
5848;DHT22;8756;49.29324300;8.70599800;2023-03-05T04:38:21;3.80;99.90
5848;DHT22;8756;49.29324300;8.70599800;2023-03-05T04:40:47;3.80;99.90
5848;DHT22;8756;49.29324300;8.70599800;2023-03-05T04:43:12;3.80;99.90
5848;DHT22;8756;49.29324300;8.70599800;2023-03-05T04:45:39;3.80;99.90
5848;DHT22;8756;49.29324300;8.70599800;2023-03-05T04:48:07;3.80;99.90
5848;DHT22;8756;49.29324300;8.70599800;2023-03-05T04:50:33;3.70;99.90
5848;DHT22;8756;49.29324300;8.70599800;2023-03-05T04:52:59;3.70;99.90
5848;DHT22;8756;49.29324300;8.70599800;2023-03-05T04:55:25;3.70;99.90
5848;DHT22;8756;49.29324300;8.70599800;2023-03-05T04:57:51;3.70;99.90
5848;DHT22;8756;49.29324300;8.70599800;2023-03-05T05:00:18;3.80;99.90
5848;DHT22;8756;49.29324300;8.70599800;2023-03-05T05:02:46;3.80;99.90
5848;DHT22;8756;49.29324300;8.70599800;2023-03-05T05:05:16;3.80;99.90
5848;DHT22;8756;49.29324300;8.70599800;2023-03-05T05:07:46;3.80;99.90
5848;DHT22;8756;49.29324300;8.70599800;2023-03-05T05:10:13;3.80;99.90
5848;DHT22;8756;49.29324300;8.70599800;2023-03-05T05:12:40;3.80;99.90
5848;DHT22;8756;49.29324300;8.70599800;2023-03-05T05:15:07;3.80;99.90
5848;DHT22;8756;49.29324300;8.70599800;2023-03-05T05:17:34;3.80;99.90
5848;DHT22;8756;49.29324300;8.70599800;2023-03-05T05:20:00;3.80;99.90
5848;DHT22;8756;49.29324300;8.70599800;2023-03-05T05:22:27;3.80;99.90
5848;DHT22;8756;49.29324300;8.70599800;2023-03-05T05:24:54;3.80;99.90
5848;DHT22;8756;49.29324300;8.70599800;2023-03-05T05:27:20;3.80;99.90
5848;DHT22;8756;49.29324300;8.70599800;2023-03-05T05:29:46;3.80;99.90
5848;DHT22;8756;49.29324300;8.70599800;2023-03-05T05:32:15;3.80;99.90
5848;DHT22;8756;49.29324300;8.70599800;2023-03-05T05:34:42;3.80;99.90
5848;DHT22;8756;49.29324300;8.70599800;2023-03-05T05:37:07;3.80;99.90
5848;DHT22;8756;49.29324300;8.70599800;2023-03-05T05:39:34;3.80;99.90
5848;DHT22;8756;49.29324300;8.70599800;2023-03-05T05:42:00;3.80;99.90
5848;DHT22;8756;49.29324300;8.70599800;2023-03-05T05:44:26;3.80;99.90
5848;DHT22;8756;49.29324300;8.70599800;2023-03-05T05:46:52;3.80;99.90
5848;DHT22;8756;49.29324300;8.70599800;2023-03-05T05:49:17;3.80;99.90
5848;DHT22;8756;49.29324300;8.70599800;2023-03-05T05:51:43;3.80;99.90
5848;DHT22;8756;49.29324300;8.70599800;2023-03-05T05:54:12;3.80;99.90
5848;DHT22;8756;49.29324300;8.70599800;2023-03-05T05:56:38;3.70;99.90
5848;DHT22;8756;49.29324300;8.70599800;2023-03-05T05:59:04;3.70;99.90
5848;DHT22;8756;49.29324300;8.70599800;2023-03-05T06:01:32;3.70;99.90
5848;DHT22;8756;49.29324300;8.70599800;2023-03-05T06:03:59;3.70;99.90
5848;DHT22;8756;49.29324300;8.70599800;2023-03-05T06:06:28;3.70;99.90
5848;DHT22;8756;49.29324300;8.70599800;2023-03-05T06:08:54;3.70;99.90
5848;DHT22;8756;49.29324300;8.70599800;2023-03-05T06:11:20;3.70;99.90
5848;DHT22;8756;49.29324300;8.70599800;2023-03-05T06:13:47;3.70;99.90
5848;DHT22;8756;49.29324300;8.70599800;2023-03-05T06:16:16;3.70;99.90
5848;DHT22;8756;49.29324300;8.70599800;2023-03-05T06:18:43;3.70;99.90
5848;DHT22;8756;49.29324300;8.70599800;2023-03-05T06:21:11;3.70;99.90
5848;DHT22;8756;49.29324300;8.70599800;2023-03-05T06:23:39;3.80;99.90
5848;DHT22;8756;49.29324300;8.70599800;2023-03-05T06:26:07;3.80;99.90
5848;DHT22;8756;49.29324300;8.70599800;2023-03-05T06:28:34;3.80;99.90
5848;DHT22;8756;49.29324300;8.70599800;2023-03-05T06:31:05;3.70;99.90
5848;DHT22;8756;49.29324300;8.70599800;2023-03-05T06:33:32;3.70;99.90
5848;DHT22;8756;49.29324300;8.70599800;2023-03-05T06:35:59;3.70;99.90
5848;DHT22;8756;49.29324300;8.70599800;2023-03-05T06:38:27;3.70;99.90
5848;DHT22;8756;49.29324300;8.70599800;2023-03-05T06:40:53;3.70;99.90
5848;DHT22;8756;49.29324300;8.70599800;2023-03-05T06:43:18;3.70;99.90
5848;DHT22;8756;49.29324300;8.70599800;2023-03-05T06:45:44;3.70;99.90
5848;DHT22;8756;49.29324300;8.70599800;2023-03-05T06:48:10;3.70;99.90
5848;DHT22;8756;49.29324300;8.70599800;2023-03-05T06:50:37;3.70;99.90
5848;DHT22;8756;49.29324300;8.70599800;2023-03-05T06:53:03;3.70;99.90
5848;DHT22;8756;49.29324300;8.70599800;2023-03-05T06:55:29;3.70;99.90
5848;DHT22;8756;49.29324300;8.70599800;2023-03-05T06:57:55;3.70;99.90
5848;DHT22;8756;49.29324300;8.70599800;2023-03-05T07:00:21;3.70;99.90
5848;DHT22;8756;49.29324300;8.70599800;2023-03-05T07:02:48;3.70;99.90
5848;DHT22;8756;49.29324300;8.70599800;2023-03-05T07:05:14;3.70;99.90
5848;DHT22;8756;49.29324300;8.70599800;2023-03-05T07:07:40;3.70;99.90
5848;DHT22;8756;49.29324300;8.70599800;2023-03-05T07:10:06;3.70;99.90
5848;DHT22;8756;49.29324300;8.70599800;2023-03-05T07:12:33;3.70;99.90
5848;DHT22;8756;49.29324300;8.70599800;2023-03-05T07:14:59;3.70;99.90
5848;DHT22;8756;49.29324300;8.70599800;2023-03-05T07:17:26;3.70;99.90
5848;DHT22;8756;49.29324300;8.70599800;2023-03-05T07:19:52;3.70;99.90
5848;DHT22;8756;49.29324300;8.70599800;2023-03-05T07:22:18;3.70;99.90
5848;DHT22;8756;49.29324300;8.70599800;2023-03-05T07:24:43;3.70;99.90
5848;DHT22;8756;49.29324300;8.70599800;2023-03-05T07:27:09;3.70;99.90
5848;DHT22;8756;49.29324300;8.70599800;2023-03-05T07:29:35;3.70;99.90
5848;DHT22;8756;49.29324300;8.70599800;2023-03-05T07:32:01;3.70;99.90
5848;DHT22;8756;49.29324300;8.70599800;2023-03-05T07:34:27;3.70;99.90
5848;DHT22;8756;49.29324300;8.70599800;2023-03-05T07:36:52;3.70;99.90
5848;DHT22;8756;49.29324300;8.70599800;2023-03-05T07:39:18;3.70;99.90
5848;DHT22;8756;49.29324300;8.70599800;2023-03-05T07:41:45;3.70;99.90
5848;DHT22;8756;49.29324300;8.70599800;2023-03-05T07:44:11;3.80;99.90
5848;DHT22;8756;49.29324300;8.70599800;2023-03-05T07:46:37;3.80;99.90
5848;DHT22;8756;49.29324300;8.70599800;2023-03-05T07:49:03;3.80;99.90
5848;DHT22;8756;49.29324300;8.70599800;2023-03-05T07:51:29;3.80;99.90
5848;DHT22;8756;49.29324300;8.70599800;2023-03-05T07:53:56;3.80;99.90
5848;DHT22;8756;49.29324300;8.70599800;2023-03-05T07:56:25;3.80;99.90
5848;DHT22;8756;49.29324300;8.70599800;2023-03-05T07:58:54;3.80;99.90
5848;DHT22;8756;49.29324300;8.70599800;2023-03-05T08:01:19;3.80;99.90
5848;DHT22;8756;49.29324300;8.70599800;2023-03-05T08:03:45;3.80;99.90
5848;DHT22;8756;49.29324300;8.70599800;2023-03-05T08:06:11;3.80;99.90
5848;DHT22;8756;49.29324300;8.70599800;2023-03-05T08:08:37;3.80;99.90
5848;DHT22;8756;49.29324300;8.70599800;2023-03-05T08:11:11;3.90;99.90
5848;DHT22;8756;49.29324300;8.70599800;2023-03-05T08:13:38;3.90;99.90
5848;DHT22;8756;49.29324300;8.70599800;2023-03-05T08:16:06;3.90;99.90
5848;DHT22;8756;49.29324300;8.70599800;2023-03-05T08:18:34;3.90;99.90
5848;DHT22;8756;49.29324300;8.70599800;2023-03-05T08:21:00;3.90;99.90
5848;DHT22;8756;49.29324300;8.70599800;2023-03-05T08:23:26;3.90;99.90
5848;DHT22;8756;49.29324300;8.70599800;2023-03-05T08:25:53;4.00;99.90
5848;DHT22;8756;49.29324300;8.70599800;2023-03-05T08:28:18;4.00;99.90
5848;DHT22;8756;49.29324300;8.70599800;2023-03-05T08:30:45;4.00;99.90
5848;DHT22;8756;49.29324300;8.70599800;2023-03-05T08:33:12;4.00;99.90
5848;DHT22;8756;49.29324300;8.70599800;2023-03-05T08:35:39;4.00;99.90
5848;DHT22;8756;49.29324300;8.70599800;2023-03-05T08:38:05;4.00;99.90
5848;DHT22;8756;49.29324300;8.70599800;2023-03-05T08:40:31;4.10;99.90
5848;DHT22;8756;49.29324300;8.70599800;2023-03-05T08:42:58;4.10;99.90
5848;DHT22;8756;49.29324300;8.70599800;2023-03-05T08:45:27;4.10;99.90
5848;DHT22;8756;49.29324300;8.70599800;2023-03-05T08:47:53;4.20;99.90
5848;DHT22;8756;49.29324300;8.70599800;2023-03-05T08:50:21;4.20;99.90
5848;DHT22;8756;49.29324300;8.70599800;2023-03-05T08:52:48;4.20;99.90
5848;DHT22;8756;49.29324300;8.70599800;2023-03-05T08:55:14;4.30;99.90
5848;DHT22;8756;49.29324300;8.70599800;2023-03-05T08:57:40;4.30;99.90
5848;DHT22;8756;49.29324300;8.70599800;2023-03-05T09:00:07;4.40;99.90
5848;DHT22;8756;49.29324300;8.70599800;2023-03-05T09:02:35;4.40;99.90
5848;DHT22;8756;49.29324300;8.70599800;2023-03-05T09:05:01;4.40;99.90
5848;DHT22;8756;49.29324300;8.70599800;2023-03-05T09:07:27;4.50;99.90
5848;DHT22;8756;49.29324300;8.70599800;2023-03-05T09:09:53;4.50;99.90
5848;DHT22;8756;49.29324300;8.70599800;2023-03-05T09:12:19;4.50;99.90
5848;DHT22;8756;49.29324300;8.70599800;2023-03-05T09:14:44;4.60;99.90
5848;DHT22;8756;49.29324300;8.70599800;2023-03-05T09:17:10;4.60;99.90
5848;DHT22;8756;49.29324300;8.70599800;2023-03-05T09:19:36;4.70;99.90
5848;DHT22;8756;49.29324300;8.70599800;2023-03-05T09:22:01;4.70;99.90
5848;DHT22;8756;49.29324300;8.70599800;2023-03-05T09:24:27;4.80;99.90
5848;DHT22;8756;49.29324300;8.70599800;2023-03-05T09:26:56;4.80;99.90
5848;DHT22;8756;49.29324300;8.70599800;2023-03-05T09:29:22;4.80;99.90
5848;DHT22;8756;49.29324300;8.70599800;2023-03-05T09:31:51;4.80;99.90
5848;DHT22;8756;49.29324300;8.70599800;2023-03-05T09:34:17;4.90;99.90
5848;DHT22;8756;49.29324300;8.70599800;2023-03-05T09:36:43;4.90;99.90
5848;DHT22;8756;49.29324300;8.70599800;2023-03-05T09:39:09;4.90;99.90
5848;DHT22;8756;49.29324300;8.70599800;2023-03-05T09:54:18;5.00;99.90
5848;DHT22;8756;49.29324300;8.70599800;2023-03-05T09:56:55;5.00;99.90
5848;DHT22;8756;49.29324300;8.70599800;2023-03-05T09:59:45;5.00;99.90
5848;DHT22;8756;49.29324300;8.70599800;2023-03-05T10:02:33;5.10;99.90
5848;DHT22;8756;49.29324300;8.70599800;2023-03-05T10:05:17;5.10;99.90
5848;DHT22;8756;49.29324300;8.70599800;2023-03-05T10:07:55;5.10;99.90
5848;DHT22;8756;49.29324300;8.70599800;2023-03-05T10:12:59;5.20;99.90
5848;DHT22;8756;49.29324300;8.70599800;2023-03-05T10:15:41;5.20;99.90
5848;DHT22;8756;49.29324300;8.70599800;2023-03-05T10:19:08;5.20;99.90
5848;DHT22;8756;49.29324300;8.70599800;2023-03-05T10:21:43;5.20;99.90
5848;DHT22;8756;49.29324300;8.70599800;2023-03-05T10:24:47;5.20;99.90
5848;DHT22;8756;49.29324300;8.70599800;2023-03-05T10:35:52;5.10;99.90
5848;DHT22;8756;49.29324300;8.70599800;2023-03-05T10:44:53;5.10;99.90
5848;DHT22;8756;49.29324300;8.70599800;2023-03-05T10:47:26;5.10;99.90
5848;DHT22;8756;49.29324300;8.70599800;2023-03-05T10:49:56;5.10;99.90
5848;DHT22;8756;49.29324300;8.70599800;2023-03-05T10:52:35;5.10;99.90
5848;DHT22;8756;49.29324300;8.70599800;2023-03-05T10:55:16;5.10;99.90
5848;DHT22;8756;49.29324300;8.70599800;2023-03-05T10:57:43;5.20;99.90
5848;DHT22;8756;49.29324300;8.70599800;2023-03-05T11:00:16;5.20;99.90
5848;DHT22;8756;49.29324300;8.70599800;2023-03-05T11:03:05;5.20;99.90
5848;DHT22;8756;49.29324300;8.70599800;2023-03-05T11:05:40;5.20;99.90
5848;DHT22;8756;49.29324300;8.70599800;2023-03-05T11:08:34;5.20;99.90
5848;DHT22;8756;49.29324300;8.70599800;2023-03-05T11:11:16;5.30;99.90
5848;DHT22;8756;49.29324300;8.70599800;2023-03-05T11:16:17;5.20;99.90
5848;DHT22;8756;49.29324300;8.70599800;2023-03-05T11:21:40;5.30;99.90
5848;DHT22;8756;49.29324300;8.70599800;2023-03-05T11:24:16;5.30;99.90
5848;DHT22;8756;49.29324300;8.70599800;2023-03-05T11:26:49;5.30;99.90
5848;DHT22;8756;49.29324300;8.70599800;2023-03-05T11:29:21;5.30;99.90
5848;DHT22;8756;49.29324300;8.70599800;2023-03-05T11:31:47;5.30;99.90
5848;DHT22;8756;49.29324300;8.70599800;2023-03-05T11:39:23;5.30;99.90
5848;DHT22;8756;49.29324300;8.70599800;2023-03-05T11:42:00;5.20;99.90
5848;DHT22;8756;49.29324300;8.70599800;2023-03-05T11:44:44;5.30;99.90
5848;DHT22;8756;49.29324300;8.70599800;2023-03-05T11:47:49;5.30;99.90
5848;DHT22;8756;49.29324300;8.70599800;2023-03-05T11:50:31;5.30;99.90
5848;DHT22;8756;49.29324300;8.70599800;2023-03-05T11:53:06;5.30;99.90
5848;DHT22;8756;49.29324300;8.70599800;2023-03-05T11:55:38;5.30;99.90
5848;DHT22;8756;49.29324300;8.70599800;2023-03-05T11:58:34;5.30;99.90
5848;DHT22;8756;49.29324300;8.70599800;2023-03-05T12:01:16;5.30;99.90
5848;DHT22;8756;49.29324300;8.70599800;2023-03-05T12:03:44;5.30;99.90
5848;DHT22;8756;49.29324300;8.70599800;2023-03-05T12:06:38;5.30;99.90
5848;DHT22;8756;49.29324300;8.70599800;2023-03-05T12:09:39;5.30;99.90
5848;DHT22;8756;49.29324300;8.70599800;2023-03-05T12:17:56;5.30;99.90
5848;DHT22;8756;49.29324300;8.70599800;2023-03-05T12:20:37;5.30;99.90
5848;DHT22;8756;49.29324300;8.70599800;2023-03-05T12:23:13;5.40;99.90
5848;DHT22;8756;49.29324300;8.70599800;2023-03-05T12:25:50;5.40;99.90
5848;DHT22;8756;49.29324300;8.70599800;2023-03-05T12:31:03;5.50;99.90
5848;DHT22;8756;49.29324300;8.70599800;2023-03-05T12:33:34;5.40;99.90
5848;DHT22;8756;49.29324300;8.70599800;2023-03-05T12:38:53;5.50;99.90
5848;DHT22;8756;49.29324300;8.70599800;2023-03-05T12:46:31;5.50;99.90
5848;DHT22;8756;49.29324300;8.70599800;2023-03-05T12:51:56;5.50;99.90
5848;DHT22;8756;49.29324300;8.70599800;2023-03-05T12:54:29;5.60;99.90
5848;DHT22;8756;49.29324300;8.70599800;2023-03-05T12:57:16;5.60;99.90
5848;DHT22;8756;49.29324300;8.70599800;2023-03-05T12:59:48;5.60;99.90
5848;DHT22;8756;49.29324300;8.70599800;2023-03-05T13:02:27;5.60;99.90
5848;DHT22;8756;49.29324300;8.70599800;2023-03-05T13:05:29;5.60;99.90
5848;DHT22;8756;49.29324300;8.70599800;2023-03-05T13:08:14;5.60;99.90
5848;DHT22;8756;49.29324300;8.70599800;2023-03-05T13:10:58;5.60;99.90
5848;DHT22;8756;49.29324300;8.70599800;2023-03-05T13:13:28;5.60;99.90
5848;DHT22;8756;49.29324300;8.70599800;2023-03-05T13:15:55;5.60;99.90
5848;DHT22;8756;49.29324300;8.70599800;2023-03-05T13:18:29;5.70;99.90
5848;DHT22;8756;49.29324300;8.70599800;2023-03-05T13:21:12;5.70;99.90
5848;DHT22;8756;49.29324300;8.70599800;2023-03-05T13:23:49;5.70;99.90
5848;DHT22;8756;49.29324300;8.70599800;2023-03-05T13:26:24;5.70;99.90
5848;DHT22;8756;49.29324300;8.70599800;2023-03-05T13:32:00;5.70;99.90
5848;DHT22;8756;49.29324300;8.70599800;2023-03-05T13:34:31;5.70;99.90
5848;DHT22;8756;49.29324300;8.70599800;2023-03-05T13:36:59;5.70;99.90
5848;DHT22;8756;49.29324300;8.70599800;2023-03-05T13:39:36;5.70;99.90
5848;DHT22;8756;49.29324300;8.70599800;2023-03-05T13:42:17;5.70;99.90
5848;DHT22;8756;49.29324300;8.70599800;2023-03-05T13:44:53;5.70;99.90
5848;DHT22;8756;49.29324300;8.70599800;2023-03-05T13:47:22;5.70;99.90
5848;DHT22;8756;49.29324300;8.70599800;2023-03-05T13:49:57;5.70;99.90
5848;DHT22;8756;49.29324300;8.70599800;2023-03-05T13:52:33;5.70;99.90
5848;DHT22;8756;49.29324300;8.70599800;2023-03-05T13:55:11;5.70;99.90
5848;DHT22;8756;49.29324300;8.70599800;2023-03-05T13:57:50;5.70;99.90
5848;DHT22;8756;49.29324300;8.70599800;2023-03-05T14:00:36;5.70;99.90
5848;DHT22;8756;49.29324300;8.70599800;2023-03-05T14:03:10;5.70;99.90
5848;DHT22;8756;49.29324300;8.70599800;2023-03-05T14:05:46;5.70;99.90
5848;DHT22;8756;49.29324300;8.70599800;2023-03-05T14:08:20;5.70;99.90
5848;DHT22;8756;49.29324300;8.70599800;2023-03-05T14:10:49;5.60;99.90
5848;DHT22;8756;49.29324300;8.70599800;2023-03-05T14:13:18;5.60;99.90
5848;DHT22;8756;49.29324300;8.70599800;2023-03-05T14:16:08;5.60;99.90
5848;DHT22;8756;49.29324300;8.70599800;2023-03-05T14:18:40;5.60;99.90
5848;DHT22;8756;49.29324300;8.70599800;2023-03-05T14:21:22;5.60;99.90
5848;DHT22;8756;49.29324300;8.70599800;2023-03-05T14:23:52;5.60;99.90
5848;DHT22;8756;49.29324300;8.70599800;2023-03-05T14:26:37;5.60;99.90
5848;DHT22;8756;49.29324300;8.70599800;2023-03-05T14:31:37;5.60;99.90
5848;DHT22;8756;49.29324300;8.70599800;2023-03-05T14:34:18;5.60;99.90
5848;DHT22;8756;49.29324300;8.70599800;2023-03-05T14:36:48;5.60;99.90
5848;DHT22;8756;49.29324300;8.70599800;2023-03-05T14:39:43;5.60;99.90
5848;DHT22;8756;49.29324300;8.70599800;2023-03-05T14:42:33;5.60;99.90
5848;DHT22;8756;49.29324300;8.70599800;2023-03-05T14:45:16;5.60;99.90
5848;DHT22;8756;49.29324300;8.70599800;2023-03-05T14:47:43;5.60;99.90
5848;DHT22;8756;49.29324300;8.70599800;2023-03-05T14:50:18;5.60;99.90
5848;DHT22;8756;49.29324300;8.70599800;2023-03-05T14:52:47;5.60;99.90
5848;DHT22;8756;49.29324300;8.70599800;2023-03-05T14:55:16;5.60;99.90
5848;DHT22;8756;49.29324300;8.70599800;2023-03-05T14:57:43;5.60;99.90
5848;DHT22;8756;49.29324300;8.70599800;2023-03-05T15:02:42;5.50;99.90
5848;DHT22;8756;49.29324300;8.70599800;2023-03-05T15:05:08;5.50;99.90
5848;DHT22;8756;49.29324300;8.70599800;2023-03-05T15:07:34;5.50;99.90
5848;DHT22;8756;49.29324300;8.70599800;2023-03-05T15:09:59;5.50;99.90
5848;DHT22;8756;49.29324300;8.70599800;2023-03-05T15:12:25;5.50;99.90
5848;DHT22;8756;49.29324300;8.70599800;2023-03-05T15:14:52;5.50;99.90
5848;DHT22;8756;49.29324300;8.70599800;2023-03-05T15:17:43;5.50;99.90
5848;DHT22;8756;49.29324300;8.70599800;2023-03-05T15:20:30;5.50;99.90
5848;DHT22;8756;49.29324300;8.70599800;2023-03-05T15:22:57;5.50;99.90
5848;DHT22;8756;49.29324300;8.70599800;2023-03-05T15:25:23;5.50;99.90